sensor_id;sensor_type;location;lat;lon;timestamp;temperature;humidity
48579;DHT22;34357;51.948;6.132;2022-07-10T00:00:32;15.90;71.40
48579;DHT22;34357;51.948;6.132;2022-07-10T00:02:58;15.90;71.70
48579;DHT22;34357;51.948;6.132;2022-07-10T00:05:25;15.90;72.00
48579;DHT22;34357;51.948;6.132;2022-07-10T00:07:51;15.90;71.70
48579;DHT22;34357;51.948;6.132;2022-07-10T00:10:21;15.90;71.40
48579;DHT22;34357;51.948;6.132;2022-07-10T00:12:48;15.80;71.40
48579;DHT22;34357;51.948;6.132;2022-07-10T00:15:14;15.80;71.20
48579;DHT22;34357;51.948;6.132;2022-07-10T00:17:42;15.70;71.60
48579;DHT22;34357;51.948;6.132;2022-07-10T00:20:09;15.70;71.70
48579;DHT22;34357;51.948;6.132;2022-07-10T00:22:36;15.70;72.30
48579;DHT22;34357;51.948;6.132;2022-07-10T00:25:04;15.70;72.30
48579;DHT22;34357;51.948;6.132;2022-07-10T00:27:30;15.60;72.20
48579;DHT22;34357;51.948;6.132;2022-07-10T00:29:56;15.60;72.50
48579;DHT22;34357;51.948;6.132;2022-07-10T00:32:21;15.60;73.10
48579;DHT22;34357;51.948;6.132;2022-07-10T00:34:47;15.60;72.40
48579;DHT22;34357;51.948;6.132;2022-07-10T00:37:13;15.60;73.10
48579;DHT22;34357;51.948;6.132;2022-07-10T00:39:38;15.70;72.60
48579;DHT22;34357;51.948;6.132;2022-07-10T00:42:09;15.70;73.10
48579;DHT22;34357;51.948;6.132;2022-07-10T00:44:35;15.70;72.70
48579;DHT22;34357;51.948;6.132;2022-07-10T00:47:03;15.60;73.00
48579;DHT22;34357;51.948;6.132;2022-07-10T00:49:29;15.60;73.00
48579;DHT22;34357;51.948;6.132;2022-07-10T00:51:55;15.70;72.80
48579;DHT22;34357;51.948;6.132;2022-07-10T00:54:21;15.60;73.60
48579;DHT22;34357;51.948;6.132;2022-07-10T00:56:47;15.50;73.40
48579;DHT22;34357;51.948;6.132;2022-07-10T00:59:13;15.50;73.60
48579;DHT22;34357;51.948;6.132;2022-07-10T01:01:39;15.50;74.10
48579;DHT22;34357;51.948;6.132;2022-07-10T01:04:05;15.60;73.50
48579;DHT22;34357;51.948;6.132;2022-07-10T01:06:31;15.60;74.00
48579;DHT22;34357;51.948;6.132;2022-07-10T01:08:58;15.60;73.90
48579;DHT22;34357;51.948;6.132;2022-07-10T01:11:24;15.50;74.10
48579;DHT22;34357;51.948;6.132;2022-07-10T01:13:49;15.60;73.60
48579;DHT22;34357;51.948;6.132;2022-07-10T01:16:15;15.50;74.00
48579;DHT22;34357;51.948;6.132;2022-07-10T01:18:42;15.50;74.20
48579;DHT22;34357;51.948;6.132;2022-07-10T01:21:27;15.40;74.10
48579;DHT22;34357;51.948;6.132;2022-07-10T01:23:54;15.40;74.50
48579;DHT22;34357;51.948;6.132;2022-07-10T01:26:20;15.40;74.50
48579;DHT22;34357;51.948;6.132;2022-07-10T01:28:50;15.30;75.00
48579;DHT22;34357;51.948;6.132;2022-07-10T01:31:23;15.30;74.90
48579;DHT22;34357;51.948;6.132;2022-07-10T01:33:49;15.20;75.30
48579;DHT22;34357;51.948;6.132;2022-07-10T01:36:16;15.20;75.40
48579;DHT22;34357;51.948;6.132;2022-07-10T01:38:42;15.20;75.60
48579;DHT22;34357;51.948;6.132;2022-07-10T01:41:08;15.20;75.60
48579;DHT22;34357;51.948;6.132;2022-07-10T01:43:38;15.10;75.70
48579;DHT22;34357;51.948;6.132;2022-07-10T01:46:08;15.00;76.00
48579;DHT22;34357;51.948;6.132;2022-07-10T01:48:34;14.90;76.30
48579;DHT22;34357;51.948;6.132;2022-07-10T01:50:59;14.90;76.60
48579;DHT22;34357;51.948;6.132;2022-07-10T01:53:25;14.90;77.00
48579;DHT22;34357;51.948;6.132;2022-07-10T01:55:51;14.80;77.20
48579;DHT22;34357;51.948;6.132;2022-07-10T01:58:16;14.70;77.60
48579;DHT22;34357;51.948;6.132;2022-07-10T02:00:42;14.70;77.60
48579;DHT22;34357;51.948;6.132;2022-07-10T02:03:08;14.70;78.00
48579;DHT22;34357;51.948;6.132;2022-07-10T02:05:52;14.60;78.40
48579;DHT22;34357;51.948;6.132;2022-07-10T02:08:18;14.60;78.30
48579;DHT22;34357;51.948;6.132;2022-07-10T02:10:43;14.70;78.50
48579;DHT22;34357;51.948;6.132;2022-07-10T02:13:10;14.70;78.50
48579;DHT22;34357;51.948;6.132;2022-07-10T02:15:37;14.70;78.40
48579;DHT22;34357;51.948;6.132;2022-07-10T02:18:02;14.70;78.40
48579;DHT22;34357;51.948;6.132;2022-07-10T02:20:28;14.70;77.80
48579;DHT22;34357;51.948;6.132;2022-07-10T02:22:54;14.80;78.30
48579;DHT22;34357;51.948;6.132;2022-07-10T02:25:19;14.80;78.60
48579;DHT22;34357;51.948;6.132;2022-07-10T02:27:45;14.70;78.70
48579;DHT22;34357;51.948;6.132;2022-07-10T02:30:11;14.80;78.90
48579;DHT22;34357;51.948;6.132;2022-07-10T02:32:36;14.90;78.80
48579;DHT22;34357;51.948;6.132;2022-07-10T02:35:02;14.90;78.40
48579;DHT22;34357;51.948;6.132;2022-07-10T02:37:29;14.90;78.00
48579;DHT22;34357;51.948;6.132;2022-07-10T02:39:54;14.90;77.40
48579;DHT22;34357;51.948;6.132;2022-07-10T02:42:21;15.00;77.30
48579;DHT22;34357;51.948;6.132;2022-07-10T02:44:46;15.00;77.00
48579;DHT22;34357;51.948;6.132;2022-07-10T02:47:12;15.00;77.20
48579;DHT22;34357;51.948;6.132;2022-07-10T02:49:38;15.00;77.10
48579;DHT22;34357;51.948;6.132;2022-07-10T02:52:04;14.90;77.10
48579;DHT22;34357;51.948;6.132;2022-07-10T02:54:30;14.90;77.60
48579;DHT22;34357;51.948;6.132;2022-07-10T02:56:56;14.80;78.00
48579;DHT22;34357;51.948;6.132;2022-07-10T02:59:22;14.70;78.20
48579;DHT22;34357;51.948;6.132;2022-07-10T03:01:47;14.70;78.50
48579;DHT22;34357;51.948;6.132;2022-07-10T03:04:13;14.60;78.60
48579;DHT22;34357;51.948;6.132;2022-07-10T03:06:39;14.60;78.90
48579;DHT22;34357;51.948;6.132;2022-07-10T03:09:04;14.60;79.10
48579;DHT22;34357;51.948;6.132;2022-07-10T03:11:30;14.50;79.10
48579;DHT22;34357;51.948;6.132;2022-07-10T03:13:56;14.60;79.40
48579;DHT22;34357;51.948;6.132;2022-07-10T03:16:21;14.60;78.90
48579;DHT22;34357;51.948;6.132;2022-07-10T03:18:47;14.60;78.80
48579;DHT22;34357;51.948;6.132;2022-07-10T03:21:13;14.70;78.80
48579;DHT22;34357;51.948;6.132;2022-07-10T03:23:39;14.80;78.30
48579;DHT22;34357;51.948;6.132;2022-07-10T03:26:05;14.80;78.00
48579;DHT22;34357;51.948;6.132;2022-07-10T03:28:31;14.70;78.40
48579;DHT22;34357;51.948;6.132;2022-07-10T03:30:57;14.80;78.30
48579;DHT22;34357;51.948;6.132;2022-07-10T03:33:23;14.80;77.70
48579;DHT22;34357;51.948;6.132;2022-07-10T03:35:48;14.90;76.80
48579;DHT22;34357;51.948;6.132;2022-07-10T03:38:14;14.90;76.80
48579;DHT22;34357;51.948;6.132;2022-07-10T03:40:40;14.90;76.70
48579;DHT22;34357;51.948;6.132;2022-07-10T03:43:06;14.90;76.80
48579;DHT22;34357;51.948;6.132;2022-07-10T03:45:31;14.90;76.60
48579;DHT22;34357;51.948;6.132;2022-07-10T03:47:57;14.90;76.90
48579;DHT22;34357;51.948;6.132;2022-07-10T03:50:23;15.00;77.10
48579;DHT22;34357;51.948;6.132;2022-07-10T03:52:49;15.00;77.30
48579;DHT22;34357;51.948;6.132;2022-07-10T03:55:15;15.00;76.80
48579;DHT22;34357;51.948;6.132;2022-07-10T03:57:40;15.10;76.90
48579;DHT22;34357;51.948;6.132;2022-07-10T04:00:28;15.00;77.00
48579;DHT22;34357;51.948;6.132;2022-07-10T04:02:58;15.10;76.70
48579;DHT22;34357;51.948;6.132;2022-07-10T04:05:25;15.10;76.90
48579;DHT22;34357;51.948;6.132;2022-07-10T04:07:51;15.10;76.50
48579;DHT22;34357;51.948;6.132;2022-07-10T04:10:18;15.10;76.80
48579;DHT22;34357;51.948;6.132;2022-07-10T04:12:44;15.20;76.70
48579;DHT22;34357;51.948;6.132;2022-07-10T04:15:10;15.20;76.90
48579;DHT22;34357;51.948;6.132;2022-07-10T04:17:36;15.20;76.60
48579;DHT22;34357;51.948;6.132;2022-07-10T04:20:02;15.30;76.50
48579;DHT22;34357;51.948;6.132;2022-07-10T04:22:28;15.30;76.30
48579;DHT22;34357;51.948;6.132;2022-07-10T04:24:54;15.30;76.40
48579;DHT22;34357;51.948;6.132;2022-07-10T04:27:20;15.30;76.30
48579;DHT22;34357;51.948;6.132;2022-07-10T04:29:46;15.30;76.30
48579;DHT22;34357;51.948;6.132;2022-07-10T04:32:13;15.30;75.70
48579;DHT22;34357;51.948;6.132;2022-07-10T04:34:39;15.30;76.30
48579;DHT22;34357;51.948;6.132;2022-07-10T04:37:05;15.30;76.00
48579;DHT22;34357;51.948;6.132;2022-07-10T04:39:33;15.40;76.60
48579;DHT22;34357;51.948;6.132;2022-07-10T04:42:00;15.40;76.40
48579;DHT22;34357;51.948;6.132;2022-07-10T04:44:26;15.40;76.50
48579;DHT22;34357;51.948;6.132;2022-07-10T04:46:51;15.40;76.60
48579;DHT22;34357;51.948;6.132;2022-07-10T04:49:17;15.40;76.70
48579;DHT22;34357;51.948;6.132;2022-07-10T04:51:43;15.40;76.80
48579;DHT22;34357;51.948;6.132;2022-07-10T04:54:08;15.40;76.30
48579;DHT22;34357;51.948;6.132;2022-07-10T04:56:34;15.40;76.70
48579;DHT22;34357;51.948;6.132;2022-07-10T04:59:00;15.50;76.40
48579;DHT22;34357;51.948;6.132;2022-07-10T05:01:25;15.50;76.50
48579;DHT22;34357;51.948;6.132;2022-07-10T05:03:51;15.60;76.90
48579;DHT22;34357;51.948;6.132;2022-07-10T05:06:17;15.60;76.40
48579;DHT22;34357;51.948;6.132;2022-07-10T05:08:42;15.60;76.40
48579;DHT22;34357;51.948;6.132;2022-07-10T05:11:09;15.70;76.40
48579;DHT22;34357;51.948;6.132;2022-07-10T05:13:35;15.70;76.30
48579;DHT22;34357;51.948;6.132;2022-07-10T05:16:00;15.70;75.90
48579;DHT22;34357;51.948;6.132;2022-07-10T05:18:26;15.70;76.10
48579;DHT22;34357;51.948;6.132;2022-07-10T05:20:52;15.80;76.30
48579;DHT22;34357;51.948;6.132;2022-07-10T05:23:17;15.80;76.50
48579;DHT22;34357;51.948;6.132;2022-07-10T05:25:43;15.80;76.20
48579;DHT22;34357;51.948;6.132;2022-07-10T05:28:09;15.80;75.80
48579;DHT22;34357;51.948;6.132;2022-07-10T05:30:34;15.70;76.00
48579;DHT22;34357;51.948;6.132;2022-07-10T05:33:00;15.80;76.00
48579;DHT22;34357;51.948;6.132;2022-07-10T05:35:26;15.70;75.70
48579;DHT22;34357;51.948;6.132;2022-07-10T05:37:53;15.70;76.70
48579;DHT22;34357;51.948;6.132;2022-07-10T05:40:18;15.70;76.80
48579;DHT22;34357;51.948;6.132;2022-07-10T05:42:44;15.70;76.40
48579;DHT22;34357;51.948;6.132;2022-07-10T05:45:11;15.80;76.60
48579;DHT22;34357;51.948;6.132;2022-07-10T05:47:37;15.80;76.30
48579;DHT22;34357;51.948;6.132;2022-07-10T05:50:03;15.80;76.60
48579;DHT22;34357;51.948;6.132;2022-07-10T05:52:29;15.80;76.30
48579;DHT22;34357;51.948;6.132;2022-07-10T05:54:58;15.80;76.00
48579;DHT22;34357;51.948;6.132;2022-07-10T05:57:24;15.90;76.30
48579;DHT22;34357;51.948;6.132;2022-07-10T05:59:50;15.90;75.20
48579;DHT22;34357;51.948;6.132;2022-07-10T06:02:16;16.00;75.50
48579;DHT22;34357;51.948;6.132;2022-07-10T06:04:42;16.10;75.60
48579;DHT22;34357;51.948;6.132;2022-07-10T06:07:08;16.10;75.80
48579;DHT22;34357;51.948;6.132;2022-07-10T06:09:34;16.20;75.50
48579;DHT22;34357;51.948;6.132;2022-07-10T06:12:00;16.20;75.70
48579;DHT22;34357;51.948;6.132;2022-07-10T06:14:26;16.20;75.80
48579;DHT22;34357;51.948;6.132;2022-07-10T06:16:51;16.20;75.80
48579;DHT22;34357;51.948;6.132;2022-07-10T06:19:17;16.20;76.10
48579;DHT22;34357;51.948;6.132;2022-07-10T06:21:44;16.20;76.20
48579;DHT22;34357;51.948;6.132;2022-07-10T06:24:10;16.20;76.00
48579;DHT22;34357;51.948;6.132;2022-07-10T06:26:35;16.20;76.10
48579;DHT22;34357;51.948;6.132;2022-07-10T06:29:01;16.20;76.80
48579;DHT22;34357;51.948;6.132;2022-07-10T06:31:27;16.20;76.00
48579;DHT22;34357;51.948;6.132;2022-07-10T06:33:54;16.20;76.00
48579;DHT22;34357;51.948;6.132;2022-07-10T06:36:20;16.20;76.80
48579;DHT22;34357;51.948;6.132;2022-07-10T06:38:45;16.30;76.10
48579;DHT22;34357;51.948;6.132;2022-07-10T06:41:11;16.20;76.10
48579;DHT22;34357;51.948;6.132;2022-07-10T06:43:37;16.20;76.40
48579;DHT22;34357;51.948;6.132;2022-07-10T06:46:03;16.20;76.40
48579;DHT22;34357;51.948;6.132;2022-07-10T06:48:29;16.20;76.50
48579;DHT22;34357;51.948;6.132;2022-07-10T06:50:55;16.20;76.70
48579;DHT22;34357;51.948;6.132;2022-07-10T06:53:21;16.20;77.20
48579;DHT22;34357;51.948;6.132;2022-07-10T06:55:53;16.10;77.50
48579;DHT22;34357;51.948;6.132;2022-07-10T06:58:19;16.10;77.30
48579;DHT22;34357;51.948;6.132;2022-07-10T07:00:44;16.00;77.50
48579;DHT22;34357;51.948;6.132;2022-07-10T07:03:10;16.00;77.70
48579;DHT22;34357;51.948;6.132;2022-07-10T07:05:36;16.00;77.90
48579;DHT22;34357;51.948;6.132;2022-07-10T07:08:02;16.00;78.00
48579;DHT22;34357;51.948;6.132;2022-07-10T07:10:27;16.00;78.30
48579;DHT22;34357;51.948;6.132;2022-07-10T07:12:53;15.90;79.20
48579;DHT22;34357;51.948;6.132;2022-07-10T07:15:19;15.90;80.70
48579;DHT22;34357;51.948;6.132;2022-07-10T07:17:48;15.90;82.10
48579;DHT22;34357;51.948;6.132;2022-07-10T07:20:24;15.70;83.70
48579;DHT22;34357;51.948;6.132;2022-07-10T07:23:09;15.60;84.30
48579;DHT22;34357;51.948;6.132;2022-07-10T07:25:35;15.60;85.10
48579;DHT22;34357;51.948;6.132;2022-07-10T07:28:00;15.60;85.20
48579;DHT22;34357;51.948;6.132;2022-07-10T07:30:26;15.60;85.70
48579;DHT22;34357;51.948;6.132;2022-07-10T07:32:52;15.60;86.40
48579;DHT22;34357;51.948;6.132;2022-07-10T07:35:17;15.70;86.60
48579;DHT22;34357;51.948;6.132;2022-07-10T07:37:45;15.50;86.70
48579;DHT22;34357;51.948;6.132;2022-07-10T07:40:18;15.50;86.90
48579;DHT22;34357;51.948;6.132;2022-07-10T07:42:52;15.60;87.60
48579;DHT22;34357;51.948;6.132;2022-07-10T07:45:22;15.60;87.60
48579;DHT22;34357;51.948;6.132;2022-07-10T07:47:53;15.50;87.10
48579;DHT22;34357;51.948;6.132;2022-07-10T07:50:28;15.60;87.50
48579;DHT22;34357;51.948;6.132;2022-07-10T07:52:54;15.50;87.70
48579;DHT22;34357;51.948;6.132;2022-07-10T07:55:21;15.60;87.70
48579;DHT22;34357;51.948;6.132;2022-07-10T07:57:48;15.60;87.90
48579;DHT22;34357;51.948;6.132;2022-07-10T08:00:16;15.40;88.00
48579;DHT22;34357;51.948;6.132;2022-07-10T08:02:45;15.40;88.20
48579;DHT22;34357;51.948;6.132;2022-07-10T08:05:11;15.40;88.50
48579;DHT22;34357;51.948;6.132;2022-07-10T08:07:43;15.40;88.70
48579;DHT22;34357;51.948;6.132;2022-07-10T08:10:11;15.50;88.80
48579;DHT22;34357;51.948;6.132;2022-07-10T08:12:43;15.50;88.70
48579;DHT22;34357;51.948;6.132;2022-07-10T08:15:12;15.40;88.30
48579;DHT22;34357;51.948;6.132;2022-07-10T08:17:39;15.40;88.70
48579;DHT22;34357;51.948;6.132;2022-07-10T08:20:06;15.40;88.60
48579;DHT22;34357;51.948;6.132;2022-07-10T08:22:33;15.50;89.20
48579;DHT22;34357;51.948;6.132;2022-07-10T08:24:59;15.60;89.10
48579;DHT22;34357;51.948;6.132;2022-07-10T08:27:25;15.60;88.50
48579;DHT22;34357;51.948;6.132;2022-07-10T08:29:51;15.70;88.80
48579;DHT22;34357;51.948;6.132;2022-07-10T08:32:16;15.70;88.70
48579;DHT22;34357;51.948;6.132;2022-07-10T08:34:42;15.80;89.10
48579;DHT22;34357;51.948;6.132;2022-07-10T08:37:08;15.80;88.90
48579;DHT22;34357;51.948;6.132;2022-07-10T08:39:34;15.80;88.90
48579;DHT22;34357;51.948;6.132;2022-07-10T08:42:02;15.80;89.10
48579;DHT22;34357;51.948;6.132;2022-07-10T08:44:30;15.80;89.30
48579;DHT22;34357;51.948;6.132;2022-07-10T08:46:59;15.80;89.40
48579;DHT22;34357;51.948;6.132;2022-07-10T08:49:29;15.90;89.60
48579;DHT22;34357;51.948;6.132;2022-07-10T08:55:00;15.80;89.60
48579;DHT22;34357;51.948;6.132;2022-07-10T08:57:26;15.70;89.50
48579;DHT22;34357;51.948;6.132;2022-07-10T08:59:52;15.60;89.80
48579;DHT22;34357;51.948;6.132;2022-07-10T09:02:19;15.70;90.10
48579;DHT22;34357;51.948;6.132;2022-07-10T09:04:45;15.80;90.20
48579;DHT22;34357;51.948;6.132;2022-07-10T09:07:11;15.90;90.10
48579;DHT22;34357;51.948;6.132;2022-07-10T09:09:54;16.00;90.10
48579;DHT22;34357;51.948;6.132;2022-07-10T09:12:24;16.00;89.50
48579;DHT22;34357;51.948;6.132;2022-07-10T09:14:51;16.20;89.70
48579;DHT22;34357;51.948;6.132;2022-07-10T09:17:20;16.50;89.70
48579;DHT22;34357;51.948;6.132;2022-07-10T09:19:46;16.60;87.00
48579;DHT22;34357;51.948;6.132;2022-07-10T09:22:12;16.90;87.80
48579;DHT22;34357;51.948;6.132;2022-07-10T09:24:44;17.20;87.20
48579;DHT22;34357;51.948;6.132;2022-07-10T09:27:13;17.30;86.30
48579;DHT22;34357;51.948;6.132;2022-07-10T09:29:50;17.50;86.10
48579;DHT22;34357;51.948;6.132;2022-07-10T09:32:21;17.50;83.90
48579;DHT22;34357;51.948;6.132;2022-07-10T09:34:48;17.60;84.40
48579;DHT22;34357;51.948;6.132;2022-07-10T09:37:27;17.80;83.50
48579;DHT22;34357;51.948;6.132;2022-07-10T09:40:04;18.00;82.80
48579;DHT22;34357;51.948;6.132;2022-07-10T09:42:40;18.00;82.00
48579;DHT22;34357;51.948;6.132;2022-07-10T09:47:57;17.90;81.80
48579;DHT22;34357;51.948;6.132;2022-07-10T09:50:33;17.80;81.20
48579;DHT22;34357;51.948;6.132;2022-07-10T09:53:03;17.90;81.40
48579;DHT22;34357;51.948;6.132;2022-07-10T09:55:34;18.00;80.80
48579;DHT22;34357;51.948;6.132;2022-07-10T09:58:00;18.30;79.60
48579;DHT22;34357;51.948;6.132;2022-07-10T10:00:29;18.50;77.90
48579;DHT22;34357;51.948;6.132;2022-07-10T10:03:06;18.50;76.20
48579;DHT22;34357;51.948;6.132;2022-07-10T10:05:53;18.70;78.00
48579;DHT22;34357;51.948;6.132;2022-07-10T10:08:25;18.90;76.80
48579;DHT22;34357;51.948;6.132;2022-07-10T10:10:52;18.80;75.80
48579;DHT22;34357;51.948;6.132;2022-07-10T10:13:20;18.70;76.30
48579;DHT22;34357;51.948;6.132;2022-07-10T10:15:47;18.60;77.60
48579;DHT22;34357;51.948;6.132;2022-07-10T10:18:16;18.50;75.80
48579;DHT22;34357;51.948;6.132;2022-07-10T10:20:43;18.60;76.40
48579;DHT22;34357;51.948;6.132;2022-07-10T10:23:16;18.70;75.30
48579;DHT22;34357;51.948;6.132;2022-07-10T10:25:43;18.80;74.50
48579;DHT22;34357;51.948;6.132;2022-07-10T10:28:13;19.00;74.10
48579;DHT22;34357;51.948;6.132;2022-07-10T10:30:41;19.30;75.20
48579;DHT22;34357;51.948;6.132;2022-07-10T10:36:09;19.70;73.50
48579;DHT22;34357;51.948;6.132;2022-07-10T10:41:36;19.70;72.60
48579;DHT22;34357;51.948;6.132;2022-07-10T10:46:35;18.90;72.90
48579;DHT22;34357;51.948;6.132;2022-07-10T10:49:08;18.60;74.40
48579;DHT22;34357;51.948;6.132;2022-07-10T10:51:59;18.60;75.20
48579;DHT22;34357;51.948;6.132;2022-07-10T10:57:24;18.90;74.90
48579;DHT22;34357;51.948;6.132;2022-07-10T11:00:14;18.80;72.40
48579;DHT22;34357;51.948;6.132;2022-07-10T11:02:41;18.90;73.40
48579;DHT22;34357;51.948;6.132;2022-07-10T11:07:54;19.00;73.10
48579;DHT22;34357;51.948;6.132;2022-07-10T11:10:37;19.00;73.20
48579;DHT22;34357;51.948;6.132;2022-07-10T11:15:29;19.30;71.90
48579;DHT22;34357;51.948;6.132;2022-07-10T11:17:56;19.30;72.10
48579;DHT22;34357;51.948;6.132;2022-07-10T11:20:23;19.20;71.50
48579;DHT22;34357;51.948;6.132;2022-07-10T11:25:54;19.40;71.40
48579;DHT22;34357;51.948;6.132;2022-07-10T11:28:57;19.60;71.00
48579;DHT22;34357;51.948;6.132;2022-07-10T11:31:24;20.10;70.90
48579;DHT22;34357;51.948;6.132;2022-07-10T11:33:55;20.60;69.50
48579;DHT22;34357;51.948;6.132;2022-07-10T11:36:23;21.00;69.40
48579;DHT22;34357;51.948;6.132;2022-07-10T11:39:05;21.20;66.70
48579;DHT22;34357;51.948;6.132;2022-07-10T11:41:31;21.60;67.00
48579;DHT22;34357;51.948;6.132;2022-07-10T11:43:58;21.50;64.20
48579;DHT22;34357;51.948;6.132;2022-07-10T11:46:26;21.10;63.90
48579;DHT22;34357;51.948;6.132;2022-07-10T11:48:53;21.10;64.40
48579;DHT22;34357;51.948;6.132;2022-07-10T11:56:33;21.20;66.50
48579;DHT22;34357;51.948;6.132;2022-07-10T11:59:04;20.90;64.30
48579;DHT22;34357;51.948;6.132;2022-07-10T12:01:32;20.80;65.00
48579;DHT22;34357;51.948;6.132;2022-07-10T12:06:26;21.00;67.10
48579;DHT22;34357;51.948;6.132;2022-07-10T12:08:53;21.20;65.30
48579;DHT22;34357;51.948;6.132;2022-07-10T12:11:20;21.30;64.50
48579;DHT22;34357;51.948;6.132;2022-07-10T12:13:47;21.20;64.80
48579;DHT22;34357;51.948;6.132;2022-07-10T12:16:14;20.90;65.60
48579;DHT22;34357;51.948;6.132;2022-07-10T12:18:42;20.70;65.90
48579;DHT22;34357;51.948;6.132;2022-07-10T12:21:11;20.30;65.00
48579;DHT22;34357;51.948;6.132;2022-07-10T12:23:38;19.90;66.70
48579;DHT22;34357;51.948;6.132;2022-07-10T12:26:10;19.70;68.20
48579;DHT22;34357;51.948;6.132;2022-07-10T12:29:27;19.50;69.90
48579;DHT22;34357;51.948;6.132;2022-07-10T12:31:55;19.40;68.70
48579;DHT22;34357;51.948;6.132;2022-07-10T12:34:36;19.40;69.40
48579;DHT22;34357;51.948;6.132;2022-07-10T12:37:12;19.50;68.20
48579;DHT22;34357;51.948;6.132;2022-07-10T12:39:47;19.80;68.40
48579;DHT22;34357;51.948;6.132;2022-07-10T12:42:15;20.00;67.90
48579;DHT22;34357;51.948;6.132;2022-07-10T12:44:49;20.00;67.70
48579;DHT22;34357;51.948;6.132;2022-07-10T12:47:16;20.10;67.50
48579;DHT22;34357;51.948;6.132;2022-07-10T12:50:01;20.10;68.80
48579;DHT22;34357;51.948;6.132;2022-07-10T12:52:37;20.20;68.80
48579;DHT22;34357;51.948;6.132;2022-07-10T13:00:21;20.00;68.70
48579;DHT22;34357;51.948;6.132;2022-07-10T13:02:48;19.70;68.80
48579;DHT22;34357;51.948;6.132;2022-07-10T13:07:52;19.80;68.40
48579;DHT22;34357;51.948;6.132;2022-07-10T13:10:17;20.00;67.80
48579;DHT22;34357;51.948;6.132;2022-07-10T13:12:43;20.10;67.90
48579;DHT22;34357;51.948;6.132;2022-07-10T13:15:09;20.30;68.80
48579;DHT22;34357;51.948;6.132;2022-07-10T13:17:43;20.60;67.10
48579;DHT22;34357;51.948;6.132;2022-07-10T13:20:09;20.60;65.20
48579;DHT22;34357;51.948;6.132;2022-07-10T13:22:35;20.70;66.50
48579;DHT22;34357;51.948;6.132;2022-07-10T13:25:01;20.80;65.70
48579;DHT22;34357;51.948;6.132;2022-07-10T13:27:26;20.90;66.10
48579;DHT22;34357;51.948;6.132;2022-07-10T13:29:52;20.90;65.20
48579;DHT22;34357;51.948;6.132;2022-07-10T13:32:18;21.00;64.70
48579;DHT22;34357;51.948;6.132;2022-07-10T13:34:44;21.20;64.60
48579;DHT22;34357;51.948;6.132;2022-07-10T13:37:10;21.20;64.50
48579;DHT22;34357;51.948;6.132;2022-07-10T13:39:38;21.40;63.60
48579;DHT22;34357;51.948;6.132;2022-07-10T13:42:04;21.60;63.70
48579;DHT22;34357;51.948;6.132;2022-07-10T13:44:30;21.70;63.90
48579;DHT22;34357;51.948;6.132;2022-07-10T13:46:56;21.90;62.30
48579;DHT22;34357;51.948;6.132;2022-07-10T13:49:21;21.80;60.40
48579;DHT22;34357;51.948;6.132;2022-07-10T13:51:48;21.90;61.70
48579;DHT22;34357;51.948;6.132;2022-07-10T13:54:14;21.90;60.70
48579;DHT22;34357;51.948;6.132;2022-07-10T13:56:40;21.90;61.00
48579;DHT22;34357;51.948;6.132;2022-07-10T13:59:08;22.00;60.30
48579;DHT22;34357;51.948;6.132;2022-07-10T14:01:34;22.10;59.00
48579;DHT22;34357;51.948;6.132;2022-07-10T14:04:00;22.30;60.70
48579;DHT22;34357;51.948;6.132;2022-07-10T14:06:26;22.30;59.60
48579;DHT22;34357;51.948;6.132;2022-07-10T14:08:52;22.40;60.00
48579;DHT22;34357;51.948;6.132;2022-07-10T14:11:18;22.30;58.70
48579;DHT22;34357;51.948;6.132;2022-07-10T14:13:44;22.20;59.60
48579;DHT22;34357;51.948;6.132;2022-07-10T14:16:10;22.10;59.20
48579;DHT22;34357;51.948;6.132;2022-07-10T14:18:36;21.90;59.00
48579;DHT22;34357;51.948;6.132;2022-07-10T14:21:08;21.70;59.80
48579;DHT22;34357;51.948;6.132;2022-07-10T14:23:36;21.60;59.50
48579;DHT22;34357;51.948;6.132;2022-07-10T14:26:02;21.40;60.00
48579;DHT22;34357;51.948;6.132;2022-07-10T14:28:30;21.30;61.00
48579;DHT22;34357;51.948;6.132;2022-07-10T14:30:57;21.30;61.50
48579;DHT22;34357;51.948;6.132;2022-07-10T14:33:25;21.30;61.20
48579;DHT22;34357;51.948;6.132;2022-07-10T14:35:51;21.30;61.30
48579;DHT22;34357;51.948;6.132;2022-07-10T14:38:17;21.20;59.70
48579;DHT22;34357;51.948;6.132;2022-07-10T14:40:43;21.30;63.20
48579;DHT22;34357;51.948;6.132;2022-07-10T14:43:08;21.40;62.30
48579;DHT22;34357;51.948;6.132;2022-07-10T14:45:34;21.40;59.70
48579;DHT22;34357;51.948;6.132;2022-07-10T14:48:00;21.40;60.00
48579;DHT22;34357;51.948;6.132;2022-07-10T14:50:25;21.40;59.60
48579;DHT22;34357;51.948;6.132;2022-07-10T14:52:54;21.50;60.00
48579;DHT22;34357;51.948;6.132;2022-07-10T14:55:19;21.50;59.90
48579;DHT22;34357;51.948;6.132;2022-07-10T14:57:45;21.60;60.20
48579;DHT22;34357;51.948;6.132;2022-07-10T15:00:13;21.60;58.90
48579;DHT22;34357;51.948;6.132;2022-07-10T15:02:39;21.70;60.40
48579;DHT22;34357;51.948;6.132;2022-07-10T15:05:05;21.60;58.80
48579;DHT22;34357;51.948;6.132;2022-07-10T15:07:31;21.70;59.50
48579;DHT22;34357;51.948;6.132;2022-07-10T15:09:57;21.50;58.30
48579;DHT22;34357;51.948;6.132;2022-07-10T15:12:22;21.40;58.60
48579;DHT22;34357;51.948;6.132;2022-07-10T15:14:48;21.50;59.90
48579;DHT22;34357;51.948;6.132;2022-07-10T15:17:14;21.50;59.80
48579;DHT22;34357;51.948;6.132;2022-07-10T15:19:40;21.60;59.40
48579;DHT22;34357;51.948;6.132;2022-07-10T15:22:05;21.50;59.40
48579;DHT22;34357;51.948;6.132;2022-07-10T15:24:31;21.60;58.80
48579;DHT22;34357;51.948;6.132;2022-07-10T15:26:57;21.60;58.20
48579;DHT22;34357;51.948;6.132;2022-07-10T15:29:23;21.70;59.00
48579;DHT22;34357;51.948;6.132;2022-07-10T15:31:51;21.70;59.00
48579;DHT22;34357;51.948;6.132;2022-07-10T15:34:18;21.60;59.80
48579;DHT22;34357;51.948;6.132;2022-07-10T15:36:43;21.40;60.20
48579;DHT22;34357;51.948;6.132;2022-07-10T15:39:12;21.10;60.00
48579;DHT22;34357;51.948;6.132;2022-07-10T15:41:38;21.10;60.40
48579;DHT22;34357;51.948;6.132;2022-07-10T15:44:06;21.10;60.40
48579;DHT22;34357;51.948;6.132;2022-07-10T15:46:31;21.10;60.50
48579;DHT22;34357;51.948;6.132;2022-07-10T15:48:57;21.20;61.20
48579;DHT22;34357;51.948;6.132;2022-07-10T15:51:25;21.30;61.40
48579;DHT22;34357;51.948;6.132;2022-07-10T15:53:50;21.40;60.80
48579;DHT22;34357;51.948;6.132;2022-07-10T15:56:16;21.30;59.70
48579;DHT22;34357;51.948;6.132;2022-07-10T15:58:42;21.40;59.60
48579;DHT22;34357;51.948;6.132;2022-07-10T16:01:08;21.40;59.50
48579;DHT22;34357;51.948;6.132;2022-07-10T16:03:36;21.50;59.90
48579;DHT22;34357;51.948;6.132;2022-07-10T16:06:01;21.40;59.20
48579;DHT22;34357;51.948;6.132;2022-07-10T16:08:27;21.40;60.90
48579;DHT22;34357;51.948;6.132;2022-07-10T16:10:53;21.20;59.30
48579;DHT22;34357;51.948;6.132;2022-07-10T16:13:18;21.20;59.90